Time;durP1;ratioP1;P1;durP2;ratioP2;P2;SDS_P1;SDS_P2;PMS_P1;PMS_P2;Temp;Humidity;BMP_temperature;BMP_pressure;BME280_temperature;BME280_humidity;BME280_pressure;Samples;Min_cycle;Max_cycle;Signal;HPM_P1;HPM_P2
2021/07/29 00:01:01;;;;;;;3.05;1.00;;;;;;;35.64;31.10;97850.78;5057782;28;20389;-83
2021/07/29 00:03:27;;;;;;;2.97;1.20;;;;;;;35.71;31.03;97846.63;5063882;28;20032;-84
2021/07/29 00:05:53;;;;;;;3.22;1.50;;;;;;;35.76;30.88;97848.69;5056816;28;20032;-84
2021/07/29 00:08:20;;;;;;;1.67;1.23;;;;;;;35.82;30.99;97840.91;5061400;28;20507;-84
2021/07/29 00:10:47;;;;;;;1.83;1.30;;;;;;;35.87;30.54;97840.88;5059739;28;20028;-84
2021/07/29 00:13:14;;;;;;;1.95;1.05;;;;;;;36.04;30.37;97838.81;5060000;28;20063;-84
2021/07/29 00:15:40;;;;;;;1.83;1.25;;;;;;;35.99;30.48;97835.97;5068144;28;20028;-84
2021/07/29 00:20:33;;;;;;;2.63;1.38;;;;;;;35.98;30.64;97831.56;5059212;28;20037;-84
2021/07/29 00:23:01;;;;;;;1.50;1.10;;;;;;;36.13;30.47;97834.13;5054508;28;20104;-83
2021/07/29 00:25:28;;;;;;;1.17;1.00;;;;;;;36.29;30.01;97830.47;5061653;28;20059;-84
2021/07/29 00:27:56;;;;;;;1.33;1.23;;;;;;;36.45;29.90;97839.03;5060170;28;20458;-83
2021/07/29 00:30:23;;;;;;;2.22;1.20;;;;;;;35.95;30.44;97846.84;5064060;28;20115;-84
2021/07/29 00:32:52;;;;;;;5.00;1.30;;;;;;;35.92;30.91;97853.59;5057303;28;20025;-84
2021/07/29 00:35:18;;;;;;;2.35;1.50;;;;;;;35.88;30.91;97853.88;5060448;28;20052;-84
2021/07/29 00:37:49;;;;;;;3.72;2.65;;;;;;;35.90;30.78;97857.00;5059142;28;20519;-84
2021/07/29 00:40:19;;;;;;;4.45;1.73;;;;;;;35.93;30.71;97852.31;5059080;28;20072;-84
2021/07/29 00:42:46;;;;;;;1.50;1.30;;;;;;;35.86;31.12;97856.50;5076998;28;20029;-84
2021/07/29 00:45:12;;;;;;;2.70;1.77;;;;;;;35.90;30.96;97844.78;5062695;28;20044;-84
2021/07/29 00:47:41;;;;;;;1.40;1.02;;;;;;;36.08;30.74;97847.16;5063287;28;20104;-84
2021/07/29 00:50:11;;;;;;;1.58;1.02;;;;;;;36.34;30.09;97846.81;5057693;28;20033;-84
2021/07/29 00:52:38;;;;;;;1.70;1.48;;;;;;;36.22;30.69;97853.88;5065023;28;20031;-84
2021/07/29 00:55:05;;;;;;;2.25;1.42;;;;;;;35.64;31.23;97835.72;5066542;28;20032;-84
2021/07/29 00:57:31;;;;;;;2.17;1.70;;;;;;;35.54;32.22;97851.56;5068918;28;20037;-85
2021/07/29 00:59:58;;;;;;;3.47;2.00;;;;;;;35.00;33.22;97851.69;5066135;28;20033;-85
2021/07/29 01:02:24;;;;;;;3.67;2.10;;;;;;;34.41;33.08;97845.19;5058970;28;20044;-85
2021/07/29 01:04:51;;;;;;;2.72;2.25;;;;;;;34.42;34.41;97853.25;5064692;28;20070;-85
2021/07/29 01:07:17;;;;;;;2.33;1.85;;;;;;;33.90;34.97;97840.44;5066498;28;20037;-85
2021/07/29 01:09:43;;;;;;;1.90;1.70;;;;;;;33.93;34.73;97842.28;5065315;28;20037;-85
2021/07/29 01:12:09;;;;;;;3.42;3.00;;;;;;;34.35;34.33;97841.53;5068737;28;20070;-85
2021/07/29 01:14:35;;;;;;;4.20;3.05;;;;;;;33.80;35.29;97851.25;5068922;28;20407;-85
2021/07/29 01:17:02;;;;;;;3.67;3.00;;;;;;;34.22;34.88;97844.81;5063771;28;20052;-85
2021/07/29 01:19:28;;;;;;;4.88;2.88;;;;;;;34.67;34.09;97846.63;5068596;28;20040;-85
2021/07/29 01:21:55;;;;;;;4.18;3.45;;;;;;;34.85;33.80;97850.31;5067753;28;20507;-85
2021/07/29 01:24:24;;;;;;;3.45;2.72;;;;;;;34.78;33.79;97850.81;5063479;28;20040;-84
2021/07/29 01:26:51;;;;;;;3.67;2.63;;;;;;;35.26;32.96;97849.44;5062551;28;20506;-84
2021/07/29 01:29:17;;;;;;;3.67;2.50;;;;;;;35.34;32.82;97852.53;5071680;28;20039;-85
2021/07/29 01:31:43;;;;;;;2.97;2.63;;;;;;;35.54;32.47;97845.84;5058198;28;20092;-85
2021/07/29 01:34:10;;;;;;;2.78;2.25;;;;;;;35.89;31.77;97855.47;5062238;28;20119;-84
2021/07/29 01:36:36;;;;;;;3.20;2.83;;;;;;;36.03;31.77;97857.28;5060140;28;20056;-84
2021/07/29 01:39:03;;;;;;;3.25;1.95;;;;;;;36.02;31.71;97847.16;5070817;28;20395;-85
2021/07/29 01:41:29;;;;;;;3.63;2.63;;;;;;;36.08;31.65;97855.72;5063191;28;20033;-85
2021/07/29 01:43:55;;;;;;;4.43;3.50;;;;;;;35.69;32.25;97847.13;5066311;28;20032;-85
2021/07/29 01:46:21;;;;;;;5.25;3.50;;;;;;;35.56;32.54;97857.53;5058672;28;20106;-85
2021/07/29 01:48:47;;;;;;;3.85;3.35;;;;;;;34.55;33.81;97862.13;5059537;28;20485;-85
2021/07/29 01:51:13;;;;;;;7.63;3.65;;;;;;;34.37;34.43;97853.19;5062385;28;20450;-85
2021/07/29 01:53:39;;;;;;;5.40;3.88;;;;;;;34.21;35.16;97859.59;5068166;28;20033;-85
2021/07/29 01:56:09;;;;;;;5.70;4.45;;;;;;;34.52;34.43;97863.16;5067275;28;20112;-85
2021/07/29 01:58:35;;;;;;;4.97;3.95;;;;;;;34.67;34.15;97858.03;5059278;28;20056;-84
2021/07/29 02:01:01;;;;;;;4.60;3.55;;;;;;;34.75;34.26;97856.25;5066207;28;20496;-85
2021/07/29 02:03:27;;;;;;;5.15;4.63;;;;;;;34.49;34.10;97860.53;5067904;28;20055;-85
2021/07/29 02:05:53;;;;;;;5.10;4.25;;;;;;;34.62;33.84;97855.94;5066257;28;20408;-86
2021/07/29 02:08:21;;;;;;;7.47;4.95;;;;;;;34.69;34.50;97861.16;5060430;28;20035;-86
2021/07/29 02:10:47;;;;;;;5.03;4.00;;;;;;;34.63;34.28;97863.22;5063296;28;20037;-85
2021/07/29 02:13:13;;;;;;;4.72;3.65;;;;;;;34.75;34.06;97861.94;5066396;28;20120;-85
2021/07/29 02:15:39;;;;;;;10.57;6.53;;;;;;;34.43;34.58;97865.41;5066133;28;20041;-89
2021/07/29 02:18:05;;;;;;;7.38;5.47;;;;;;;33.88;35.28;97880.06;5065163;28;20032;-89
2021/07/29 02:20:31;;;;;;;6.68;5.22;;;;;;;34.55;34.15;97876.41;5055963;28;20066;-87
2021/07/29 02:22:57;;;;;;;3.50;3.20;;;;;;;34.63;33.49;97883.19;5055440;28;20032;-88
2021/07/29 02:25:23;;;;;;;4.50;3.92;;;;;;;34.64;33.49;97878.25;5067005;28;20115;-87
2021/07/29 02:27:49;;;;;;;5.90;3.95;;;;;;;34.64;33.24;97878.25;5066693;28;20438;-87
2021/07/29 02:30:15;;;;;;;6.40;3.67;;;;;;;34.67;32.96;97877.22;5067080;28;20082;-87
2021/07/29 02:32:42;;;;;;;3.35;3.05;;;;;;;34.54;33.27;97879.78;5064577;28;20400;-86
2021/07/29 02:35:08;;;;;;;4.32;2.92;;;;;;;34.61;32.86;97877.19;5064303;28;20477;-87
2021/07/29 02:37:34;;;;;;;4.85;3.80;;;;;;;34.64;33.16;97864.75;5067951;28;20432;-87
2021/07/29 02:40:01;;;;;;;4.10;3.67;;;;;;;34.74;32.82;97862.47;5068498;28;20484;-87
2021/07/29 02:42:27;;;;;;;6.25;3.75;;;;;;;35.00;32.68;97871.66;5065849;28;20131;-87
2021/07/29 02:44:53;;;;;;;4.03;3.33;;;;;;;35.35;31.91;97866.31;5064636;28;20044;-86
2021/07/29 02:47:19;;;;;;;5.95;4.43;;;;;;;35.37;32.08;97860.06;5062311;28;20057;-86
2021/07/29 02:49:45;;;;;;;3.60;3.25;;;;;;;35.69;31.38;97855.72;5062059;28;20377;-86
2021/07/29 02:52:11;;;;;;;7.03;4.80;;;;;;;35.74;31.24;97860.66;5067308;28;20029;-85
2021/07/29 02:54:37;;;;;;;4.70;3.88;;;;;;;35.51;31.49;97859.09;5068340;28;20035;-84
2021/07/29 02:57:04;;;;;;;6.63;5.22;;;;;;;35.53;31.84;97845.06;5066557;28;20377;-85
2021/07/29 02:59:30;;;;;;;4.18;3.60;;;;;;;35.58;31.74;97850.00;5065936;28;20041;-86
2021/07/29 03:01:56;;;;;;;4.30;3.53;;;;;;;35.80;30.95;97849.97;5063883;28;20496;-85
2021/07/29 03:04:23;;;;;;;3.78;3.38;;;;;;;36.01;30.63;97859.09;5072042;28;20035;-87
2021/07/29 03:06:49;;;;;;;6.15;4.55;;;;;;;36.03;30.40;97854.44;5067603;28;20091;-86
2021/07/29 03:09:15;;;;;;;5.53;3.63;;;;;;;35.91;30.92;97861.44;5064064;28;20041;-85
2021/07/29 03:11:41;;;;;;;4.22;3.80;;;;;;;35.77;31.53;97859.63;5065027;28;20060;-86
2021/07/29 03:14:07;;;;;;;4.35;3.53;;;;;;;36.00;30.80;97869.75;5065833;28;20032;-86
2021/07/29 03:16:33;;;;;;;5.13;3.40;;;;;;;36.08;30.90;97863.50;5056097;28;20064;-85
2021/07/29 03:19:02;;;;;;;6.35;4.15;;;;;;;36.03;30.79;97874.44;5063582;28;20517;-86
2021/07/29 03:21:28;;;;;;;5.03;3.97;;;;;;;35.51;32.15;97879.06;5061715;28;20556;-86
2021/07/29 03:23:54;;;;;;;8.00;3.83;;;;;;;35.59;31.71;97877.28;5068232;28;20021;-85
2021/07/29 03:26:20;;;;;;;5.47;4.15;;;;;;;35.43;31.96;97880.84;5062197;28;20106;-86
2021/07/29 03:28:46;;;;;;;5.00;3.92;;;;;;;35.03;32.77;97887.75;5056571;28;20484;-87
2021/07/29 03:31:12;;;;;;;4.50;3.35;;;;;;;35.28;32.39;97881.09;5067035;28;20479;-87
2021/07/29 03:33:38;;;;;;;5.63;4.38;;;;;;;34.80;32.78;97877.53;5064038;28;20037;-85
2021/07/29 03:36:04;;;;;;;4.50;4.10;;;;;;;34.91;32.40;97879.66;5067814;28;20067;-85
2021/07/29 03:38:31;;;;;;;5.03;3.35;;;;;;;35.07;32.52;97884.66;5062885;28;20086;-85
2021/07/29 03:40:57;;;;;;;5.18;4.68;;;;;;;34.90;32.72;97883.78;5065764;28;20077;-86
2021/07/29 03:43:23;;;;;;;6.68;3.25;;;;;;;35.11;32.46;97883.13;5065342;28;20392;-84
2021/07/29 03:45:49;;;;;;;3.70;3.30;;;;;;;35.51;31.59;97892.56;5067316;28;20400;-84
2021/07/29 03:48:15;;;;;;;5.53;3.58;;;;;;;35.59;31.54;97890.78;5065435;28;20036;-84
2021/07/29 03:50:41;;;;;;;5.18;4.40;;;;;;;35.46;31.58;97894.09;5061510;28;20078;-85
2021/07/29 03:53:07;;;;;;;5.13;4.00;;;;;;;35.04;32.63;97892.19;5058841;28;20025;-85
2021/07/29 03:55:33;;;;;;;3.60;3.20;;;;;;;35.34;31.96;97887.59;5066375;28;20085;-86
2021/07/29 03:58:00;;;;;;;4.20;3.78;;;;;;;35.66;31.37;97893.88;5058372;28;20033;-86
2021/07/29 04:00:26;;;;;;;3.55;2.95;;;;;;;35.70;31.26;97890.78;5059587;28;20153;-85
2021/07/29 04:02:53;;;;;;;4.20;3.70;;;;;;;35.52;31.66;97900.66;5062436;28;20419;-86
2021/07/29 04:05:19;;;;;;;4.15;3.45;;;;;;;35.46;31.43;97901.88;5066392;28;20076;-86
2021/07/29 04:07:45;;;;;;;4.25;3.30;;;;;;;35.73;31.11;97904.03;5059778;28;20029;-85
2021/07/29 04:10:11;;;;;;;5.03;3.35;;;;;;;35.65;31.35;97905.84;5068014;28;20399;-86
2021/07/29 04:12:37;;;;;;;5.90;3.35;;;;;;;35.49;31.67;97910.22;5062736;28;20025;-85
2021/07/29 04:15:04;;;;;;;5.57;3.80;;;;;;;34.90;32.75;97915.97;5063413;28;20040;-86
2021/07/29 04:17:30;;;;;;;6.50;4.75;;;;;;;34.56;32.93;97914.25;5056332;28;20059;-85
2021/07/29 04:19:58;;;;;;;5.22;3.60;;;;;;;34.59;32.71;97916.06;5065725;28;20033;-86
2021/07/29 04:22:25;;;;;;;4.38;3.60;;;;;;;34.39;33.38;97913.34;5055693;28;20025;-85
2021/07/29 04:24:55;;;;;;;6.63;4.28;;;;;;;34.30;33.09;97914.31;5061208;28;20040;-86
2021/07/29 04:27:22;;;;;;;4.40;3.65;;;;;;;34.65;32.79;97911.19;5061553;28;20029;-85
2021/07/29 04:29:48;;;;;;;3.75;3.15;;;;;;;34.68;32.85;97908.06;5070858;28;20032;-85
2021/07/29 04:32:15;;;;;;;4.35;3.88;;;;;;;34.29;33.57;97920.53;5067968;28;20120;-85
2021/07/29 04:34:41;;;;;;;4.57;3.45;;;;;;;34.57;33.25;97916.59;5066392;28;20087;-85
2021/07/29 04:37:08;;;;;;;3.38;3.08;;;;;;;34.98;32.63;97914.19;5069115;28;20053;-85
2021/07/29 04:39:35;;;;;;;4.07;3.03;;;;;;;35.61;32.15;97919.59;5072292;28;20039;-85
2021/07/29 04:42:01;;;;;;;4.43;3.15;;;;;;;36.23;30.86;97926.91;5068451;28;20086;-87
2021/07/29 04:44:27;;;;;;;2.97;2.20;;;;;;;36.43;30.13;97927.38;5066937;28;20045;-86
2021/07/29 04:46:53;;;;;;;3.67;2.45;;;;;;;36.16;30.37;97930.28;5067724;28;20736;-87
2021/07/29 04:49:20;;;;;;;3.03;2.25;;;;;;;36.14;30.36;97935.75;5063490;28;20044;-88
2021/07/29 04:51:47;;;;;;;2.55;2.35;;;;;;;35.66;31.13;97936.72;5067198;28;20488;-84
2021/07/29 04:54:14;;;;;;;4.10;2.50;;;;;;;34.93;31.92;97937.00;5067822;28;20054;-90
2021/07/29 04:56:40;;;;;;;4.28;2.40;;;;;;;35.15;31.57;97934.28;5073406;28;20033;-86
2021/07/29 04:59:06;;;;;;;3.17;2.45;;;;;;;34.80;32.18;97931.72;5065335;28;20048;-86
2021/07/29 05:01:35;;;;;;;3.45;2.55;;;;;;;34.32;32.71;97937.41;5067067;28;20036;-86
2021/07/29 05:04:02;;;;;;;3.65;3.30;;;;;;;34.76;32.27;97942.63;5068165;28;20029;-85
2021/07/29 05:06:29;;;;;;;3.03;2.55;;;;;;;35.33;31.60;97931.72;5067440;28;20043;-88
2021/07/29 05:08:56;;;;;;;2.30;2.10;;;;;;;34.89;32.06;97937.25;5067913;28;20060;-85
2021/07/29 05:11:22;;;;;;;5.22;2.45;;;;;;;34.96;31.91;97941.69;5072706;28;20459;-86
2021/07/29 05:13:51;;;;;;;3.65;2.17;;;;;;;35.41;31.48;97937.69;5066266;28;20488;-82
2021/07/29 05:16:17;;;;;;;3.17;2.28;;;;;;;35.34;31.00;97941.06;5070408;28;20040;-83
2021/07/29 05:18:43;;;;;;;2.92;2.55;;;;;;;34.94;31.60;97944.28;5068292;28;20037;-83
2021/07/29 05:21:09;;;;;;;3.13;2.45;;;;;;;34.72;32.00;97948.56;5062824;28;20111;-83
2021/07/29 05:23:36;;;;;;;3.13;2.30;;;;;;;34.99;31.72;97944.28;5069049;28;20499;-83
2021/07/29 05:26:02;;;;;;;2.90;2.20;;;;;;;35.66;31.47;97944.53;5062120;28;20037;-83
2021/07/29 05:28:28;;;;;;;3.17;2.10;;;;;;;35.89;30.44;97941.19;5064032;28;20047;-83
2021/07/29 05:30:55;;;;;;;2.05;1.80;;;;;;;36.08;30.27;97940.69;5074814;28;20036;-85
2021/07/29 05:33:21;;;;;;;4.07;2.40;;;;;;;35.62;30.58;97936.22;5087019;28;20028;-86
2021/07/29 05:35:47;;;;;;;2.40;1.77;;;;;;;35.78;30.49;97940.41;5079141;28;20064;-85
2021/07/29 05:38:13;;;;;;;2.10;1.90;;;;;;;35.51;30.59;97932.56;5072680;28;20025;-84
2021/07/29 05:40:39;;;;;;;2.00;1.83;;;;;;;35.65;30.27;97938.03;5069021;28;20025;-85
2021/07/29 05:43:05;;;;;;;3.40;2.92;;;;;;;34.86;31.42;97941.13;5072700;28;20041;-85
2021/07/29 05:45:32;;;;;;;4.00;2.63;;;;;;;35.13;31.48;97942.53;5065163;28;20040;-87
2021/07/29 05:47:59;;;;;;;3.65;2.67;;;;;;;34.94;31.41;97947.13;5065169;28;20040;-88
2021/07/29 05:50:25;;;;;;;4.25;3.05;;;;;;;34.85;31.18;97941.59;5072224;28;20548;-88
2021/07/29 05:52:51;;;;;;;3.70;2.72;;;;;;;34.81;32.29;97941.88;5068834;28;20031;-90
2021/07/29 05:55:17;;;;;;;3.95;2.92;;;;;;;35.36;31.05;97944.16;5070602;28;20029;-86
2021/07/29 05:57:43;;;;;;;3.63;2.90;;;;;;;35.56;31.09;97946.06;5072953;28;20036;-85
2021/07/29 06:00:10;;;;;;;3.08;2.47;;;;;;;35.49;30.92;97947.34;5072354;28;20036;-86
2021/07/29 06:02:36;;;;;;;4.32;2.78;;;;;;;35.55;30.29;97951.00;5068972;28;20416;-85
2021/07/29 06:05:03;;;;;;;5.65;2.78;;;;;;;35.82;30.38;97946.63;5060190;28;20021;-85
2021/07/29 06:07:30;;;;;;;3.05;2.75;;;;;;;36.21;30.66;97950.31;5058329;28;20037;-88
2021/07/29 06:09:56;;;;;;;2.97;2.63;;;;;;;35.54;30.86;97952.31;5070903;28;20036;-86
2021/07/29 06:12:28;;;;;;;4.97;3.45;;;;;;;35.97;30.58;97950.00;5064277;28;20036;-85
2021/07/29 06:14:55;;;;;;;3.75;3.33;;;;;;;35.90;29.95;97951.31;5072843;28;20051;-85
2021/07/29 06:17:27;;;;;;;3.88;3.30;;;;;;;36.14;29.54;97950.81;5069491;28;20029;-86
2021/07/29 06:19:53;;;;;;;4.60;3.53;;;;;;;36.31;29.74;97962.25;5069020;28;20127;-85
2021/07/29 06:22:19;;;;;;;4.75;3.42;;;;;;;36.36;29.93;97956.50;5074705;28;20036;-86
2021/07/29 06:24:46;;;;;;;4.47;3.08;;;;;;;36.83;29.96;97962.44;5069819;28;20040;-86
2021/07/29 06:27:12;;;;;;;4.22;3.33;;;;;;;36.41;29.16;97972.88;5071293;28;20036;-84
2021/07/29 06:29:38;;;;;;;4.00;2.90;;;;;;;35.62;29.98;97967.63;5071160;28;20033;-83
2021/07/29 06:32:05;;;;;;;4.20;2.60;;;;;;;35.85;30.22;97969.22;5063944;28;20032;-84
2021/07/29 06:34:31;;;;;;;5.25;3.05;;;;;;;35.52;30.25;97972.03;5059862;28;20074;-83
2021/07/29 06:36:57;;;;;;;2.80;2.55;;;;;;;35.27;30.51;97979.44;5062652;28;20036;-83
2021/07/29 06:39:23;;;;;;;3.55;2.60;;;;;;;35.05;30.89;97981.44;5065828;28;20032;-83
2021/07/29 06:41:49;;;;;;;2.95;2.70;;;;;;;35.34;30.52;97983.88;5061289;28;20028;-83
2021/07/29 06:44:15;;;;;;;2.70;2.40;;;;;;;35.47;30.71;97984.19;5068495;28;20037;-83
2021/07/29 06:46:41;;;;;;;4.00;2.30;;;;;;;36.19;30.29;97980.72;5060398;28;20087;-83
2021/07/29 06:49:07;;;;;;;2.90;2.40;;;;;;;35.51;30.32;97979.03;5065629;28;20115;-83
2021/07/29 06:51:37;;;;;;;3.75;2.10;;;;;;;36.28;29.22;97978.38;5067527;28;20520;-84
2021/07/29 06:54:07;;;;;;;2.55;2.35;;;;;;;36.23;28.32;97978.38;5063756;28;20108;-85
2021/07/29 06:56:33;;;;;;;2.28;1.80;;;;;;;36.69;28.26;97975.72;5066100;28;20123;-85
2021/07/29 06:58:59;;;;;;;2.95;1.73;;;;;;;36.53;28.23;97974.47;5062526;28;20029;-86
2021/07/29 07:01:26;;;;;;;2.72;2.40;;;;;;;36.88;27.54;97979.59;5062130;28;20032;-85
2021/07/29 07:03:52;;;;;;;1.60;1.50;;;;;;;37.24;27.84;97978.47;5066192;28;20103;-85
2021/07/29 07:06:18;;;;;;;3.67;2.00;;;;;;;37.15;27.25;97975.91;5063106;28;20111;-85
2021/07/29 07:08:44;;;;;;;2.40;2.20;;;;;;;36.33;28.25;97974.75;5065512;28;20044;-85
2021/07/29 07:11:17;;;;;;;2.20;2.00;;;;;;;36.73;28.20;97976.25;5063599;28;20045;-85
2021/07/29 07:13:46;;;;;;;1.95;1.60;;;;;;;35.43;30.00;97978.72;5062152;28;20039;-86
2021/07/29 07:16:13;;;;;;;3.10;2.08;;;;;;;35.66;29.59;97979.59;5061453;28;20495;-86
2021/07/29 07:18:40;;;;;;;2.78;2.45;;;;;;;34.85;30.58;97981.56;5062030;28;20040;-85
2021/07/29 07:21:07;;;;;;;2.08;1.92;;;;;;;34.50;31.32;97994.03;5059656;28;20032;-85
2021/07/29 07:23:35;;;;;;;3.17;2.70;;;;;;;34.71;30.46;97986.16;5068276;28;20096;-85
2021/07/29 07:26:01;;;;;;;2.28;1.80;;;;;;;34.77;29.71;97981.28;5059119;28;20029;-85
2021/07/29 07:28:28;;;;;;;2.53;1.50;;;;;;;35.29;29.30;97987.50;5067852;28;20045;-85
2021/07/29 07:30:54;;;;;;;1.60;1.45;;;;;;;35.63;28.40;97986.34;5058423;28;20071;-85
2021/07/29 07:33:20;;;;;;;2.30;1.60;;;;;;;35.73;27.73;97989.75;5063177;28;20052;-85
2021/07/29 07:35:46;;;;;;;1.60;1.45;;;;;;;35.70;28.29;97988.69;5066285;28;20036;-84
2021/07/29 07:38:12;;;;;;;2.20;1.67;;;;;;;35.93;27.33;97983.78;5069697;28;20024;-87
2021/07/29 07:40:38;;;;;;;1.83;1.70;;;;;;;36.01;27.44;97993.47;5066140;28;20086;-86
2021/07/29 07:43:04;;;;;;;2.30;1.45;;;;;;;36.28;27.58;97984.09;5071331;28;20028;-86
2021/07/29 07:45:30;;;;;;;2.35;1.77;;;;;;;35.74;28.85;97983.50;5066937;28;20068;-86
2021/07/29 07:47:56;;;;;;;2.13;1.92;;;;;;;35.18;28.64;97996.03;5062533;28;20142;-86
2021/07/29 07:50:23;;;;;;;1.73;1.63;;;;;;;35.65;27.97;97988.69;5060126;28;20032;-86
2021/07/29 07:52:49;;;;;;;2.03;1.70;;;;;;;35.88;27.86;97981.69;5059216;28;20050;-85
2021/07/29 07:55:15;;;;;;;1.95;1.77;;;;;;;36.02;27.39;97984.34;5068531;28;20025;-83
2021/07/29 07:57:41;;;;;;;2.97;1.73;;;;;;;36.51;26.69;97976.28;5067852;28;20407;-82
2021/07/29 08:00:08;;;;;;;2.17;1.70;;;;;;;36.70;26.61;97988.75;5069507;28;20028;-83
2021/07/29 08:02:34;;;;;;;1.67;1.20;;;;;;;36.46;27.13;97982.78;5055202;28;20389;-83
2021/07/29 08:05:00;;;;;;;2.83;1.42;;;;;;;36.22;27.01;97982.53;5070163;28;20036;-83
2021/07/29 08:07:26;;;;;;;1.95;1.30;;;;;;;36.56;26.80;97982.03;5067784;28;20036;-83
2021/07/29 08:09:52;;;;;;;1.30;1.13;;;;;;;36.54;27.02;97984.63;5061170;28;20055;-83
2021/07/29 08:12:18;;;;;;;1.60;1.50;;;;;;;36.62;26.98;97979.91;5061484;28;20036;-83
2021/07/29 08:14:44;;;;;;;1.35;1.23;;;;;;;36.22;26.72;97971.09;5071671;28;20040;-83
2021/07/29 08:17:10;;;;;;;1.95;1.50;;;;;;;36.55;26.61;97982.56;5055400;28;20033;-82
2021/07/29 08:19:36;;;;;;;2.97;1.52;;;;;;;37.06;26.61;97976.16;5070172;28;20032;-82
2021/07/29 08:22:02;;;;;;;1.75;1.52;;;;;;;36.96;25.88;97977.78;5068419;28;20093;-83
2021/07/29 08:24:28;;;;;;;1.30;1.20;;;;;;;36.29;27.34;97976.31;5055978;28;20473;-83
2021/07/29 08:26:57;;;;;;;1.73;1.30;;;;;;;36.50;27.28;97971.88;5071174;28;20052;-83
2021/07/29 08:29:23;;;;;;;1.63;1.50;;;;;;;37.34;25.90;97968.22;5054139;28;20033;-83
2021/07/29 08:31:49;;;;;;;1.65;1.40;;;;;;;37.19;26.08;97967.81;5063621;28;20045;-83
2021/07/29 08:34:15;;;;;;;1.50;1.40;;;;;;;37.63;25.11;97971.75;5066169;28;20033;-83
2021/07/29 08:36:42;;;;;;;1.55;1.20;;;;;;;37.00;25.78;97974.63;5063850;28;20043;-82
2021/07/29 08:39:08;;;;;;;2.10;1.00;;;;;;;36.03;27.69;97971.63;5057672;28;20048;-83
2021/07/29 08:41:35;;;;;;;1.63;1.33;;;;;;;36.23;27.52;97964.06;5065329;28;20403;-83
2021/07/29 08:44:03;;;;;;;1.40;1.30;;;;;;;36.85;26.84;97966.34;5081617;28;20472;-84
2021/07/29 08:46:29;;;;;;;2.47;1.50;;;;;;;37.37;25.60;97967.22;5075921;28;20044;-83
2021/07/29 08:48:55;;;;;;;1.85;1.60;;;;;;;37.64;25.40;97970.47;5068310;28;20107;-83
2021/07/29 08:51:23;;;;;;;2.97;1.40;;;;;;;36.71;27.01;97967.44;5063275;28;20080;-83
2021/07/29 08:53:50;;;;;;;2.80;1.60;;;;;;;36.12;27.09;97975.50;5064736;28;20024;-84
2021/07/29 08:56:24;;;;;;;2.15;1.95;;;;;;;35.08;29.48;97969.78;5064294;28;20033;-83
2021/07/29 08:58:53;;;;;;;2.50;2.30;;;;;;;34.32;30.43;97980.16;5065759;28;20112;-81
2021/07/29 09:01:20;;;;;;;2.20;2.00;;;;;;;34.79;29.21;97961.56;5066308;28;20029;-82
2021/07/29 09:03:48;;;;;;;2.53;2.28;;;;;;;34.79;28.65;97972.19;5056442;28;20090;-83
2021/07/29 09:06:15;;;;;;;2.00;1.65;;;;;;;35.17;28.79;97980.22;5063860;28;20044;-82
2021/07/29 09:09:01;;;;;;;2.20;2.00;;;;;;;35.70;27.96;97974.41;5064543;28;20036;-82
2021/07/29 09:11:36;;;;;;;1.80;1.70;;;;;;;36.62;26.34;97977.06;5060968;28;20033;-83
2021/07/29 09:14:09;;;;;;;3.50;1.60;;;;;;;37.04;24.65;97969.44;5063097;28;20520;-82
2021/07/29 09:16:51;;;;;;;1.40;1.30;;;;;;;36.22;25.45;97966.16;5063562;28;20036;-82
2021/07/29 09:19:30;;;;;;;7.68;1.67;;;;;;;36.45;26.50;97969.81;5065965;28;20029;-83
2021/07/29 09:22:10;;;;;;;1.30;1.20;;;;;;;36.78;24.87;97966.09;5063694;28;20032;-83
2021/07/29 09:25:17;;;;;;;1.48;1.38;;;;;;;37.49;25.65;97967.94;5065473;28;20056;-82
2021/07/29 09:27:46;;;;;;;1.25;1.08;;;;;;;38.34;23.33;97963.97;5056109;28;20033;-82
2021/07/29 09:30:27;;;;;;;0.90;0.90;;;;;;;38.52;22.97;97964.06;5075859;28;20092;-82
2021/07/29 09:32:54;;;;;;;;;;;;;;;38.54;23.93;97952.03;5079116;28;20029;-83
2021/07/29 09:35:29;;;;;;;1.00;0.90;;;;;;;38.95;22.66;97954.75;5065673;28;19935;-83
2021/07/29 09:37:55;;;;;;;1.42;1.10;;;;;;;38.21;23.02;97955.97;5064587;28;20033;-82
2021/07/29 09:40:22;;;;;;;1.17;1.05;;;;;;;37.59;24.24;97949.13;5072218;28;20025;-82
2021/07/29 09:43:09;;;;;;;4.75;1.20;;;;;;;37.96;24.00;97946.53;5061147;28;20127;-83
2021/07/29 09:45:36;;;;;;;1.55;1.13;;;;;;;38.42;22.94;97954.25;5068892;28;20494;-82
2021/07/29 09:48:05;;;;;;;1.35;1.25;;;;;;;38.79;22.87;97953.63;5072438;28;20067;-82
2021/07/29 09:50:32;;;;;;;1.77;1.20;;;;;;;38.62;22.56;97959.53;5063857;28;20040;-82
2021/07/29 09:52:59;;;;;;;1.20;1.10;;;;;;;38.12;23.85;97953.44;5071812;28;20032;-84
2021/07/29 09:55:32;;;;;;;1.52;1.20;;;;;;;38.65;24.01;97951.94;5063036;28;20078;-82
2021/07/29 09:58:01;;;;;;;1.10;1.05;;;;;;;38.76;23.83;97948.19;5067581;28;20043;-83
2021/07/29 10:00:28;;;;;;;2.30;1.30;;;;;;;38.62;24.00;97945.19;5064720;28;20048;-82
2021/07/29 10:02:55;;;;;;;1.83;1.30;;;;;;;39.24;23.27;97936.66;5062573;28;20072;-83
2021/07/29 10:05:37;;;;;;;1.23;1.13;;;;;;;39.14;23.31;97939.09;5063954;28;20036;-82
2021/07/29 10:08:06;;;;;;;1.20;1.10;;;;;;;39.14;23.07;97941.22;5069650;28;20032;-83
2021/07/29 10:10:33;;;;;;;1.10;1.00;;;;;;;39.56;22.10;97937.50;5068459;28;20362;-82
2021/07/29 10:12:59;;;;;;;0.90;0.90;;;;;;;39.38;24.26;97926.78;5066754;28;20401;-83
2021/07/29 10:15:42;;;;;;;1.25;1.15;;;;;;;38.72;23.16;97939.88;5067990;28;20040;-82
2021/07/29 10:18:13;;;;;;;1.83;1.50;;;;;;;39.49;22.67;97929.50;5059692;28;20033;-83
2021/07/29 10:20:41;;;;;;;1.70;1.60;;;;;;;39.48;22.30;97922.22;5067839;28;20051;-83
2021/07/29 10:23:13;;;;;;;1.83;1.60;;;;;;;39.96;22.72;97918.34;5070272;28;20459;-83
2021/07/29 10:26:03;;;;;;;4.95;2.80;;;;;;;40.04;21.96;97916.41;5066310;28;20028;-85
2021/07/29 10:28:40;;;;;;;1.50;1.40;;;;;;;40.36;21.63;97907.72;5074427;28;20119;-83
2021/07/29 10:31:08;;;;;;;1.52;1.42;;;;;;;40.13;21.86;97913.13;5070663;28;20056;-82
2021/07/29 10:33:34;;;;;;;1.33;1.23;;;;;;;39.50;22.55;97910.94;5070563;28;20086;-82
2021/07/29 10:36:02;;;;;;;1.30;1.20;;;;;;;39.23;22.57;97912.88;5072718;28;20059;-82
2021/07/29 10:38:41;;;;;;;1.50;1.15;;;;;;;39.57;22.09;97904.56;5062305;28;20029;-83
2021/07/29 10:41:14;;;;;;;1.92;1.77;;;;;;;39.71;21.11;97914.06;5067313;28;20036;-82
2021/07/29 10:43:42;;;;;;;1.27;1.17;;;;;;;39.96;22.05;97913.38;5059279;28;20025;-82
2021/07/29 10:46:10;;;;;;;1.73;1.33;;;;;;;40.06;20.89;97912.97;5061646;28;20699;-82
2021/07/29 10:48:50;;;;;;;1.38;1.27;;;;;;;40.24;21.20;97907.16;5065915;28;20032;-81
2021/07/29 10:51:16;;;;;;;1.85;1.45;;;;;;;40.12;21.58;97916.56;5062785;28;20033;-81
2021/07/29 10:53:44;;;;;;;1.45;1.20;;;;;;;40.40;21.37;97916.84;5059224;28;20072;-81
2021/07/29 10:56:19;;;;;;;1.50;1.30;;;;;;;39.94;21.71;97910.28;5065426;28;20036;-81
2021/07/29 10:58:50;;;;;;;2.47;1.30;;;;;;;39.39;22.13;97908.25;5066161;28;20036;-81
2021/07/29 11:01:17;;;;;;;1.30;1.20;;;;;;;39.32;22.10;97912.53;5062609;28;20405;-81
2021/07/29 11:06:24;;;;;;;2.00;1.58;;;;;;;39.89;21.61;97913.22;5065612;28;20040;-81
2021/07/29 11:08:52;;;;;;;1.60;1.50;;;;;;;38.28;24.40;97917.34;5062894;28;20032;-81
2021/07/29 11:11:19;;;;;;;6.60;2.03;;;;;;;38.62;22.78;97910.75;5065912;28;20044;-81
2021/07/29 11:13:50;;;;;;;1.70;1.60;;;;;;;37.76;25.05;97909.66;5062928;28;20098;-80
2021/07/29 11:16:17;;;;;;;1.77;1.63;;;;;;;38.52;24.24;97903.81;5061115;28;20075;-81
2021/07/29 11:18:58;;;;;;;1.98;1.88;;;;;;;38.96;22.76;97893.13;5063066;28;20089;-81
2021/07/29 11:21:25;;;;;;;1.30;1.20;;;;;;;39.11;23.33;97890.59;5062143;28;20169;-81
2021/07/29 11:23:51;;;;;;;1.70;1.60;;;;;;;39.14;22.57;97889.50;5062910;28;20037;-82
2021/07/29 11:26:17;;;;;;;2.10;1.85;;;;;;;39.44;21.56;97889.38;5064293;28;21235;-82
2021/07/29 11:28:43;;;;;;;1.40;1.30;;;;;;;38.55;24.51;97893.34;5060940;28;20029;-81
2021/07/29 11:31:09;;;;;;;2.63;1.90;;;;;;;38.75;21.67;97890.00;5060826;28;20492;-82
2021/07/29 11:33:36;;;;;;;1.92;1.83;;;;;;;38.31;23.23;97894.09;5060467;28;20399;-82
2021/07/29 11:36:11;;;;;;;1.70;1.60;;;;;;;38.79;22.21;97898.31;5065268;28;20058;-82
2021/07/29 11:38:39;;;;;;;2.72;1.80;;;;;;;38.19;23.05;97888.97;5058975;28;20036;-82
2021/07/29 11:41:05;;;;;;;3.08;2.30;;;;;;;38.34;22.66;97884.44;5063161;28;20033;-82